Rhourd El Adra — 7TBS — position and weather

sailwx.info

Track history (hours):
 
Tides and Currents Weather Stations Pressure Air Temp Water Temp Dewpoint Dewpoint Depression Visibility Wind Speed Wind Dir Waves Ship Positions

Rhourd El Adra

Last reported at 2014-Jul-21 10:33 UTC. Time now 2014-Jul-23 22:14 UTC.
Position N 36°01' W 005°21'.

Length 156 m; draft 7 m.

Type: Ship (hazmat cat C). MMSI: 605026210.

Date/timePositionNaut miles runAvg speedWind from/ knotsBaromVisibWave heightAir tempDewpointWater temp
2014-Jul-21 10:33N 36°01' W 005°21'  
2014-Jul-18 17:26N 37°24' E 000°20'1415.8
2014-Jul-18 16:33N 37°38' E 000°25'1615.9
2014-Jul-18 15:32N 37°53' E 000°31'1615.8
2014-Jul-18 14:33N 38°08' E 000°37'1615.7
2014-Jul-18 13:32N 38°23' E 000°43'1515.7
2014-Jul-18 12:33N 38°38' E 000°48'1715.7
2014-Jul-18 11:26N 38°55' E 000°54'1415.9
2014-Jul-18 10:34N 39°09' E 000°56'1816.0
2014-Jul-18 09:25N 39°27' E 000°57'1416.0
2014-Jul-18 08:33N 39°41' E 001°01'1616.0
2014-Jul-18 07:33N 39°57' E 001°02'1615.7
2014-Jul-18 06:33N 40°13' E 001°03'1615.6
2014-Jul-18 05:33N 40°28' E 001°06'1616.1
2014-Jul-18 04:33N 40°44' E 001°08'1414.4
2014-Jul-18 03:33N 40°58' E 001°11'8 3.4
2014-Jul-18 01:16N 41°06' E 001°13'0 0.0
2014-Jul-17 21:28N 41°06' E 001°13'0 0.0
2014-Jul-17 20:10N 41°06' E 001°13'0 0.0
2014-Jul-17 19:16N 41°06' E 001°13'0 0.0
2014-Jul-17 18:16N 41°06' E 001°13'0 0.0
2014-Jul-17 17:22N 41°06' E 001°13'0 0.0
2014-Jul-17 16:04N 41°06' E 001°13'0 0.0
2014-Jul-17 15:28N 41°06' E 001°13'0 0.0
2014-Jul-17 07:22N 41°06' E 001°13'1 0.1
2014-Jul-16 12:26N 41°05' E 001°13'2 1.5
2014-Jul-16 11:10N 41°05' E 001°15'0 0.0
2014-Jul-16 10:10N 41°05' E 001°15'0 0.0
2014-Jul-16 08:28N 41°05' E 001°15'0 0.0
2014-Jul-16 06:28N 41°05' E 001°15'0 0.0
2014-Jul-16 05:10N 41°05' E 001°15'0 0.0
2014-Jul-15 19:10N 41°05' E 001°15'0 0.0
2014-Jul-15 16:22N 41°05' E 001°15'0 0.0
2014-Jul-15 07:28N 41°05' E 001°15'0 0.0
2014-Jul-15 04:28N 41°05' E 001°15'0 0.0
2014-Jul-15 03:16N 41°05' E 001°15'0 0.0
2014-Jul-15 02:22N 41°05' E 001°15'0 0.0
2014-Jul-15 01:07N 41°05' E 001°15'0 0.0
2014-Jul-14 23:22N 41°05' E 001°15'0 0.0
2014-Jul-14 16:28N 41°05' E 001°15'0 0.0
2014-Jul-14 15:33N 41°05' E 001°15'4 3.7
2014-Jul-14 14:32N 41°01' E 001°14'1414.1
2014-Jul-14 13:33N 40°48' E 001°09'1615.6
2014-Jul-14 12:33N 40°32' E 001°06'1515.3
2014-Jul-14 11:33N 40°17' E 001°05'1515.1
2014-Jul-14 10:32N 40°02' E 001°03'1715.0
2014-Jul-14 09:26N 39°45' E 001°01'4415.3
2014-Jul-14 06:33N 39°01' E 000°56'1815.3
2014-Jul-14 05:22N 38°44' E 000°51'1315.3
2014-Jul-14 04:33N 38°32' E 000°47'1515.3
2014-Jul-14 03:33N 38°18' E 000°40'1615.5
2014-Jul-14 02:33N 38°03' E 000°34'1615.7
2014-Jul-14 01:33N 37°47' E 000°29'1615.7
2014-Jul-14 00:33N 37°32' E 000°25'1615.7
2014-Jul-13 23:33N 37°17' E 000°20'1615.9
2014-Jul-13 22:33N 37°02' E 000°14'1916.9
2014-Jul-13 21:26N 36°43' E 000°08'40 0.9
2014-Jul-12 02:15N 36°04' W 000°05'1 0.6
2014-Jul-12 01:23N 36°04' W 000°05'  
Track history (hours):
 
Tides and Currents Weather Stations Pressure Air Temp Water Temp Dewpoint Dewpoint Depression Visibility Wind Speed Wind Dir Waves Ship Positions

Rhourd El Adra

Last reported at 2014-Jul-21 10:33 UTC. Time now 2014-Jul-23 22:14 UTC.
Position N 36°01' W 005°21'.

Length 156 m; draft 7 m.

Type: Ship (hazmat cat C). MMSI: 605026210.

Date/timePositionNaut miles runAvg speedWind from/ knotsBaromVisibWave heightAir tempDewpointWater temp
2014-Jul-21 10:33N 36°01' W 005°21'  
2014-Jul-18 17:26N 37°24' E 000°20'1415.8
2014-Jul-18 16:33N 37°38' E 000°25'1615.9
2014-Jul-18 15:32N 37°53' E 000°31'1615.8
2014-Jul-18 14:33N 38°08' E 000°37'1615.7
2014-Jul-18 13:32N 38°23' E 000°43'1515.7
2014-Jul-18 12:33N 38°38' E 000°48'1715.7
2014-Jul-18 11:26N 38°55' E 000°54'1415.9
2014-Jul-18 10:34N 39°09' E 000°56'1816.0
2014-Jul-18 09:25N 39°27' E 000°57'1416.0
2014-Jul-18 08:33N 39°41' E 001°01'1616.0
2014-Jul-18 07:33N 39°57' E 001°02'1615.7
2014-Jul-18 06:33N 40°13' E 001°03'1615.6
2014-Jul-18 05:33N 40°28' E 001°06'1616.1
2014-Jul-18 04:33N 40°44' E 001°08'1414.4
2014-Jul-18 03:33N 40°58' E 001°11'8 3.4
2014-Jul-18 01:16N 41°06' E 001°13'0 0.0
2014-Jul-17 21:28N 41°06' E 001°13'0 0.0
2014-Jul-17 20:10N 41°06' E 001°13'0 0.0
2014-Jul-17 19:16N 41°06' E 001°13'0 0.0
2014-Jul-17 18:16N 41°06' E 001°13'0 0.0
2014-Jul-17 17:22N 41°06' E 001°13'0 0.0
2014-Jul-17 16:04N 41°06' E 001°13'0 0.0
2014-Jul-17 15:28N 41°06' E 001°13'0 0.0
2014-Jul-17 07:22N 41°06' E 001°13'1 0.1
2014-Jul-16 12:26N 41°05' E 001°13'2 1.5
2014-Jul-16 11:10N 41°05' E 001°15'0 0.0
2014-Jul-16 10:10N 41°05' E 001°15'0 0.0
2014-Jul-16 08:28N 41°05' E 001°15'0 0.0
2014-Jul-16 06:28N 41°05' E 001°15'0 0.0
2014-Jul-16 05:10N 41°05' E 001°15'0 0.0
2014-Jul-15 19:10N 41°05' E 001°15'0 0.0
2014-Jul-15 16:22N 41°05' E 001°15'0 0.0
2014-Jul-15 07:28N 41°05' E 001°15'0 0.0
2014-Jul-15 04:28N 41°05' E 001°15'0 0.0
2014-Jul-15 03:16N 41°05' E 001°15'0 0.0
2014-Jul-15 02:22N 41°05' E 001°15'0 0.0
2014-Jul-15 01:07N 41°05' E 001°15'0 0.0
2014-Jul-14 23:22N 41°05' E 001°15'0 0.0
2014-Jul-14 16:28N 41°05' E 001°15'0 0.0
2014-Jul-14 15:33N 41°05' E 001°15'4 3.7
2014-Jul-14 14:32N 41°01' E 001°14'1414.1
2014-Jul-14 13:33N 40°48' E 001°09'1615.6
2014-Jul-14 12:33N 40°32' E 001°06'1515.3
2014-Jul-14 11:33N 40°17' E 001°05'1515.1
2014-Jul-14 10:32N 40°02' E 001°03'1715.0
2014-Jul-14 09:26N 39°45' E 001°01'4415.3
2014-Jul-14 06:33N 39°01' E 000°56'1815.3
2014-Jul-14 05:22N 38°44' E 000°51'1315.3
2014-Jul-14 04:33N 38°32' E 000°47'1515.3
2014-Jul-14 03:33N 38°18' E 000°40'1615.5
2014-Jul-14 02:33N 38°03' E 000°34'1615.7
2014-Jul-14 01:33N 37°47' E 000°29'1615.7
2014-Jul-14 00:33N 37°32' E 000°25'1615.7
2014-Jul-13 23:33N 37°17' E 000°20'1615.9
2014-Jul-13 22:33N 37°02' E 000°14'1916.9
2014-Jul-13 21:26N 36°43' E 000°08'40 0.9
2014-Jul-12 02:15N 36°04' W 000°05'1 0.6
2014-Jul-12 01:23N 36°04' W 000°05'  

Dump ship's entire track history